createdAt,value
2023-09-29T00:02:41.472Z,19.41
2023-09-29T00:05:44.838Z,19.39
2023-09-29T00:08:47.652Z,19.35
2023-09-29T00:11:52.834Z,19.30
2023-09-29T00:14:55.815Z,19.28
2023-09-29T00:17:58.891Z,19.28
2023-09-29T00:21:01.368Z,19.22
2023-09-29T00:24:05.516Z,19.20
2023-09-29T00:27:07.894Z,19.19
2023-09-29T00:30:14.018Z,19.16
2023-09-29T00:33:16.932Z,19.13
2023-09-29T00:36:22.554Z,19.10
2023-09-29T00:39:28.462Z,19.07
2023-09-29T00:42:31.583Z,19.06
2023-09-29T00:45:34.453Z,19.04
2023-09-29T00:48:39.459Z,19.01
2023-09-29T00:51:42.361Z,18.99
2023-09-29T00:54:47.457Z,18.97
2023-09-29T00:57:53.051Z,18.95
2023-09-29T01:00:57.318Z,18.92
2023-09-29T01:03:59.975Z,18.88
2023-09-29T01:07:08.532Z,18.88
2023-09-29T01:10:17.272Z,18.87
2023-09-29T01:13:20.244Z,18.89
2023-09-29T01:16:22.572Z,18.78
2023-09-29T01:19:26.015Z,18.76
2023-09-29T01:22:31.388Z,18.75
2023-09-29T01:25:34.911Z,18.74
2023-09-29T01:28:37.253Z,18.68
2023-09-29T01:31:40.542Z,18.69
2023-09-29T01:34:43.041Z,18.70
2023-09-29T01:37:48.873Z,18.68
2023-09-29T01:40:53.021Z,18.65
2023-09-29T01:43:56.502Z,18.62
2023-09-29T01:46:58.968Z,18.58
2023-09-29T01:50:02.002Z,18.57
2023-09-29T01:53:04.392Z,18.56
2023-09-29T01:56:08.205Z,18.56
2023-09-29T01:59:11.238Z,18.54
2023-09-29T02:02:14.315Z,18.52
2023-09-29T02:05:17.995Z,18.51
2023-09-29T02:08:21.087Z,18.48
2023-09-29T02:11:25.641Z,18.45
2023-09-29T02:14:30.264Z,18.43
2023-09-29T02:17:37.818Z,18.36
2023-09-29T02:20:48.500Z,18.30
2023-09-29T02:23:51.458Z,18.28
2023-09-29T02:26:54.560Z,18.26
2023-09-29T02:29:57.460Z,18.22
2023-09-29T02:33:00.307Z,18.25
2023-09-29T02:36:03.083Z,18.21
2023-09-29T02:39:05.833Z,18.20
2023-09-29T02:42:09.085Z,18.14
2023-09-29T02:45:11.889Z,18.16
2023-09-29T02:48:15.098Z,18.15
2023-09-29T02:51:18.692Z,18.14
2023-09-29T02:54:21.788Z,18.05
2023-09-29T02:57:24.945Z,18.00
2023-09-29T03:00:28.345Z,18.00
2023-09-29T03:03:31.346Z,18.00
2023-09-29T03:06:34.159Z,18.02
2023-09-29T03:09:37.315Z,17.98
2023-09-29T03:12:40.068Z,17.94
2023-09-29T03:15:43.193Z,17.93
2023-09-29T03:18:47.678Z,17.93
2023-09-29T03:21:50.482Z,17.92
2023-09-29T03:24:53.254Z,17.92
2023-09-29T03:27:57.110Z,17.88
2023-09-29T03:31:01.408Z,17.85
2023-09-29T03:34:05.205Z,17.83
2023-09-29T03:37:08.106Z,17.84
2023-09-29T03:40:11.735Z,17.78
2023-09-29T03:43:14.681Z,17.75
2023-09-29T03:46:20.919Z,17.75
2023-09-29T03:49:24.639Z,17.72
2023-09-29T03:52:27.252Z,17.70
2023-09-29T03:55:29.975Z,17.68
2023-09-29T03:58:32.521Z,17.69
2023-09-29T04:01:35.560Z,17.68
2023-09-29T04:04:38.458Z,17.64
2023-09-29T04:07:42.176Z,17.60
2023-09-29T04:10:45.194Z,17.59
2023-09-29T04:13:47.563Z,17.58
2023-09-29T04:16:51.541Z,17.58
2023-09-29T04:19:56.576Z,17.57
2023-09-29T04:23:01.280Z,17.55
2023-09-29T04:26:04.323Z,17.55
2023-09-29T04:29:07.286Z,17.55
2023-09-29T04:32:09.786Z,17.53
2023-09-29T04:35:12.763Z,17.47
2023-09-29T04:38:15.121Z,17.45
2023-09-29T04:41:18.536Z,17.42
2023-09-29T04:44:20.994Z,17.40
2023-09-29T04:47:24.085Z,17.41
2023-09-29T04:50:27.088Z,17.43
2023-09-29T04:53:30.054Z,17.44
2023-09-29T04:56:32.772Z,17.47
2023-09-29T04:59:36.240Z,17.44
2023-09-29T05:02:38.911Z,17.45
2023-09-29T05:05:42.079Z,17.47
2023-09-29T05:08:45.815Z,17.49
2023-09-29T05:11:48.920Z,17.49
2023-09-29T05:14:51.846Z,17.52
2023-09-29T05:17:55.011Z,17.53
2023-09-29T05:20:57.693Z,17.57
2023-09-29T05:24:00.683Z,17.62
2023-09-29T05:27:03.242Z,17.67
2023-09-29T05:30:06.709Z,17.73
2023-09-29T05:33:09.455Z,17.81
2023-09-29T05:36:12.545Z,17.87
2023-09-29T05:39:15.956Z,17.93
2023-09-29T05:42:27.994Z,17.96
2023-09-29T05:45:36.176Z,18.01
2023-09-29T05:48:40.237Z,18.06
2023-09-29T05:51:42.876Z,18.12
2023-09-29T05:54:46.296Z,18.24
2023-09-29T05:57:48.826Z,18.32
2023-09-29T06:00:51.803Z,18.39
2023-09-29T06:03:54.689Z,18.42
2023-09-29T06:06:57.438Z,18.52
2023-09-29T06:10:01.465Z,18.60
2023-09-29T06:13:04.935Z,18.74
2023-09-29T06:16:09.413Z,18.80
2023-09-29T06:19:12.207Z,18.90
2023-09-29T06:22:15.012Z,19.08
2023-09-29T06:25:19.828Z,19.12
2023-09-29T06:28:22.715Z,19.21
2023-09-29T06:31:25.341Z,19.38
2023-09-29T06:34:28.034Z,19.50
2023-09-29T06:37:30.729Z,19.53
2023-09-29T06:40:33.931Z,19.60
2023-09-29T06:43:36.874Z,19.75
2023-09-29T06:46:39.603Z,19.81
2023-09-29T06:49:42.323Z,20.00
2023-09-29T06:52:44.967Z,20.13
2023-09-29T06:55:47.580Z,20.28
2023-09-29T06:58:50.481Z,20.48
2023-09-29T07:01:53.860Z,20.70
2023-09-29T07:04:56.755Z,20.90
2023-09-29T07:07:59.678Z,21.14
2023-09-29T07:11:04.534Z,21.43
2023-09-29T07:14:07.567Z,21.61
2023-09-29T07:17:10.334Z,21.82
2023-09-29T07:20:14.127Z,22.18
2023-09-29T07:23:18.234Z,22.63
2023-09-29T07:26:20.844Z,23.04
2023-09-29T07:29:23.522Z,23.46
2023-09-29T07:32:29.077Z,23.91
2023-09-29T07:35:31.742Z,24.37
2023-09-29T07:38:34.565Z,25.12
2023-09-29T07:41:37.382Z,27.59
2023-09-29T07:44:40.729Z,34.08
2023-09-29T07:47:43.490Z,39.21
2023-09-29T07:50:46.747Z,42.79
2023-09-29T07:53:49.561Z,45.17
2023-09-29T07:56:52.317Z,47.01
2023-09-29T07:59:55.002Z,48.27
2023-09-29T08:02:57.968Z,49.09
2023-09-29T08:06:01.009Z,49.82
2023-09-29T08:09:05.137Z,50.55
2023-09-29T08:12:08.163Z,50.34
2023-09-29T08:15:12.656Z,50.19
2023-09-29T08:18:15.632Z,49.67
2023-09-29T08:21:18.389Z,48.47
2023-09-29T08:24:21.168Z,46.02
2023-09-29T08:27:24.796Z,43.23
2023-09-29T08:30:27.681Z,40.68
2023-09-29T08:33:44.330Z,38.58
2023-09-29T08:36:53.385Z,37.12
2023-09-29T08:39:56.185Z,35.89
2023-09-29T08:43:02.585Z,35.11
2023-09-29T08:46:05.484Z,34.42
2023-09-29T08:49:09.734Z,33.97
2023-09-29T08:52:15.795Z,33.85
2023-09-29T08:55:19.267Z,34.05
2023-09-29T08:58:25.750Z,34.15
2023-09-29T09:01:28.914Z,34.08
2023-09-29T09:04:32.374Z,34.07
2023-09-29T09:07:36.531Z,34.41
2023-09-29T09:10:39.871Z,34.43
2023-09-29T09:13:42.922Z,34.64
2023-09-29T09:16:47.109Z,35.02
2023-09-29T09:19:55.845Z,35.27
2023-09-29T09:22:59.651Z,35.52
2023-09-29T09:26:12.690Z,35.39
2023-09-29T09:29:18.062Z,35.45
2023-09-29T09:32:30.176Z,35.57
2023-09-29T09:35:34.646Z,35.74
2023-09-29T09:38:38.404Z,35.69
2023-09-29T09:41:43.138Z,35.85
2023-09-29T09:44:45.954Z,35.79
2023-09-29T09:47:51.200Z,35.69
2023-09-29T09:50:57.440Z,35.14
2023-09-29T09:54:04.549Z,35.24
2023-09-29T09:57:10.399Z,35.17
2023-09-29T10:00:14.689Z,35.54
2023-09-29T10:03:18.547Z,35.89
2023-09-29T10:06:23.423Z,35.92
2023-09-29T10:09:27.165Z,35.54
2023-09-29T10:12:32.800Z,34.84
2023-09-29T10:15:36.475Z,34.87
2023-09-29T10:18:39.333Z,35.14
2023-09-29T10:21:46.911Z,35.41
2023-09-29T10:25:13.116Z,35.46
2023-09-29T10:28:18.862Z,35.54
2023-09-29T10:31:29.085Z,35.47
2023-09-29T10:34:33.913Z,35.66
2023-09-29T10:37:42.504Z,35.76
2023-09-29T10:40:45.845Z,35.83
2023-09-29T10:43:50.081Z,36.14
2023-09-29T10:46:52.842Z,36.30
2023-09-29T10:49:56.718Z,36.47
2023-09-29T10:52:59.597Z,36.64
2023-09-29T10:56:02.590Z,36.32
2023-09-29T10:59:06.138Z,36.49
2023-09-29T11:02:14.572Z,36.20
2023-09-29T11:05:22.055Z,35.89
2023-09-29T11:08:33.521Z,35.66
2023-09-29T11:11:37.251Z,35.75
2023-09-29T11:14:40.714Z,35.65
2023-09-29T11:17:47.848Z,35.41
2023-09-29T11:20:56.577Z,35.41
2023-09-29T11:24:04.811Z,35.75
2023-09-29T11:27:07.666Z,35.59
2023-09-29T11:30:12.215Z,35.82
2023-09-29T11:33:19.043Z,35.56
2023-09-29T11:36:24.515Z,35.17
2023-09-29T11:39:34.785Z,35.27
2023-09-29T11:42:39.340Z,35.17
2023-09-29T11:45:42.367Z,35.19
2023-09-29T11:48:45.313Z,35.07
2023-09-29T11:51:53.900Z,34.81
2023-09-29T11:54:57.862Z,34.53
2023-09-29T11:58:00.835Z,34.54
2023-09-29T12:01:03.886Z,34.66
2023-09-29T12:04:07.964Z,34.91
2023-09-29T12:07:10.649Z,34.98
2023-09-29T12:10:14.989Z,35.22
2023-09-29T12:13:17.740Z,35.11
2023-09-29T12:16:20.842Z,35.16
2023-09-29T12:19:23.411Z,35.04
2023-09-29T12:22:26.686Z,34.77
2023-09-29T12:25:29.149Z,34.39
2023-09-29T12:28:32.659Z,34.11
2023-09-29T12:31:38.215Z,34.00
2023-09-29T12:34:43.825Z,33.07
2023-09-29T12:37:47.502Z,33.20
2023-09-29T12:40:55.971Z,32.64
2023-09-29T12:43:59.124Z,32.56
2023-09-29T12:47:02.432Z,32.46
2023-09-29T12:50:05.219Z,32.56
2023-09-29T12:53:12.124Z,32.73
2023-09-29T12:56:17.603Z,32.90
2023-09-29T12:59:25.857Z,32.90
2023-09-29T13:02:33.159Z,32.86
2023-09-29T13:05:39.387Z,32.56
2023-09-29T13:08:41.964Z,32.42
2023-09-29T13:11:50.031Z,32.24
2023-09-29T13:14:53.171Z,32.44
2023-09-29T13:17:56.397Z,32.67
2023-09-29T13:20:58.993Z,32.48
2023-09-29T13:24:03.502Z,32.46
2023-09-29T13:27:07.101Z,32.59
2023-09-29T13:30:10.650Z,32.28
2023-09-29T13:33:13.541Z,32.06
2023-09-29T13:36:16.779Z,31.81
2023-09-29T13:39:19.447Z,31.80
2023-09-29T13:42:24.442Z,31.90
2023-09-29T13:45:26.912Z,32.12
2023-09-29T13:48:32.025Z,32.22
2023-09-29T13:51:34.593Z,32.26
2023-09-29T13:54:39.002Z,32.01
2023-09-29T13:57:41.573Z,31.85
2023-09-29T14:00:44.836Z,31.54
2023-09-29T14:03:50.185Z,31.33
2023-09-29T14:06:54.083Z,31.13
2023-09-29T14:09:56.805Z,30.96
2023-09-29T14:13:02.329Z,30.77
2023-09-29T14:16:05.551Z,30.64
2023-09-29T14:19:08.313Z,30.38
2023-09-29T14:22:11.487Z,30.18
2023-09-29T14:25:14.987Z,29.96
2023-09-29T14:28:17.866Z,29.63
2023-09-29T14:31:21.061Z,29.36
2023-09-29T14:34:23.702Z,29.12
2023-09-29T14:37:26.948Z,28.95
2023-09-29T14:40:29.754Z,28.80
2023-09-29T14:43:32.808Z,28.81
2023-09-29T14:46:53.626Z,28.70
2023-09-29T14:50:00.514Z,28.46
2023-09-29T14:53:03.415Z,28.26
2023-09-29T14:56:25.158Z,28.11
2023-09-29T14:59:27.588Z,28.00
2023-09-29T15:02:30.512Z,27.90
2023-09-29T15:05:35.795Z,27.76
2023-09-29T15:08:42.032Z,27.63
2023-09-29T15:11:45.199Z,27.58
2023-09-29T15:14:48.135Z,27.43
2023-09-29T15:17:52.161Z,27.48
2023-09-29T15:20:55.464Z,27.34
2023-09-29T15:23:58.057Z,27.20
2023-09-29T15:27:01.206Z,27.23
2023-09-29T15:30:05.030Z,27.08
2023-09-29T15:33:11.074Z,26.97
2023-09-29T15:36:13.798Z,26.88
2023-09-29T15:39:18.112Z,26.79
2023-09-29T15:42:20.695Z,26.70
2023-09-29T15:45:23.647Z,26.62
2023-09-29T15:48:32.186Z,26.59
2023-09-29T15:51:35.268Z,26.52
2023-09-29T15:54:39.241Z,26.48
2023-09-29T15:57:42.284Z,26.40
2023-09-29T16:00:45.163Z,26.35
2023-09-29T16:03:50.095Z,26.27
2023-09-29T16:06:52.606Z,26.21
2023-09-29T16:09:55.539Z,26.13
2023-09-29T16:12:57.976Z,26.07
2023-09-29T16:16:04.781Z,26.00
2023-09-29T16:19:08.041Z,25.91
2023-09-29T16:22:11.909Z,25.81
2023-09-29T16:25:14.383Z,25.73
2023-09-29T16:28:17.386Z,25.65
2023-09-29T16:31:19.851Z,25.57
2023-09-29T16:34:22.813Z,25.47
2023-09-29T16:37:25.200Z,25.38
2023-09-29T16:40:29.424Z,25.27
2023-09-29T16:43:31.899Z,25.18
2023-09-29T16:46:36.717Z,25.09
2023-09-29T16:49:39.124Z,25.01
2023-09-29T16:52:44.075Z,24.92
2023-09-29T16:55:47.025Z,24.83
2023-09-29T16:58:50.231Z,24.74
2023-09-29T17:01:52.604Z,24.65
2023-09-29T17:04:56.227Z,24.57
2023-09-29T17:07:58.904Z,24.47
2023-09-29T17:11:02.704Z,24.41
2023-09-29T17:14:05.166Z,24.35
2023-09-29T17:17:10.996Z,24.28
2023-09-29T17:20:15.440Z,24.22
2023-09-29T17:23:18.361Z,24.19
2023-09-29T17:26:20.719Z,24.10
2023-09-29T17:29:23.807Z,24.03
2023-09-29T17:32:26.844Z,23.99
2023-09-29T17:35:31.263Z,23.96
2023-09-29T17:38:36.870Z,23.92
2023-09-29T17:41:39.866Z,23.88
2023-09-29T17:44:42.270Z,23.81
2023-09-29T17:47:45.350Z,23.74
2023-09-29T17:50:49.341Z,23.70
2023-09-29T17:53:53.581Z,23.62
2023-09-29T17:56:56.304Z,23.54
2023-09-29T17:59:59.896Z,23.47
2023-09-29T18:03:02.313Z,23.40
2023-09-29T18:06:07.248Z,23.35
2023-09-29T18:09:10.287Z,23.29
2023-09-29T18:12:13.599Z,23.20
2023-09-29T18:15:15.972Z,23.11
2023-09-29T18:18:19.142Z,23.04
2023-09-29T18:21:22.254Z,23.02
2023-09-29T18:24:25.264Z,22.95
2023-09-29T18:27:27.628Z,22.90
2023-09-29T18:30:33.441Z,22.85
2023-09-29T18:33:36.780Z,22.79
2023-09-29T18:36:40.164Z,22.71
2023-09-29T18:39:42.863Z,22.65
2023-09-29T18:42:45.852Z,22.59
2023-09-29T18:45:48.994Z,22.52
2023-09-29T18:48:52.176Z,22.45
2023-09-29T18:51:57.035Z,22.41
2023-09-29T18:55:00.291Z,22.37
2023-09-29T18:58:02.864Z,22.30
2023-09-29T19:01:08.515Z,22.26
2023-09-29T19:04:13.657Z,22.23
2023-09-29T19:07:16.646Z,22.15
2023-09-29T19:10:19.237Z,22.10
2023-09-29T19:13:22.386Z,22.08
2023-09-29T19:16:24.830Z,22.06
2023-09-29T19:19:27.936Z,21.99
2023-09-29T19:22:30.739Z,21.92
2023-09-29T19:25:34.887Z,21.90
2023-09-29T19:28:38.370Z,21.85
2023-09-29T19:31:43.411Z,21.82
2023-09-29T19:34:45.939Z,21.76
2023-09-29T19:37:48.991Z,21.73
2023-09-29T19:40:51.386Z,21.71
2023-09-29T19:43:54.307Z,21.70
2023-09-29T19:46:56.834Z,21.70
2023-09-29T19:49:59.779Z,21.68
2023-09-29T19:53:04.054Z,21.64
2023-09-29T19:56:11.200Z,21.60
2023-09-29T19:59:13.585Z,21.56
2023-09-29T20:02:16.548Z,21.53
2023-09-29T20:05:19.276Z,21.47
2023-09-29T20:08:27.329Z,21.37
2023-09-29T20:11:30.404Z,21.31
2023-09-29T20:14:33.103Z,21.28
2023-09-29T20:17:36.883Z,21.23
2023-09-29T20:20:39.793Z,21.17
2023-09-29T20:23:42.636Z,21.15
2023-09-29T20:26:45.570Z,21.09
2023-09-29T20:29:48.198Z,21.06
2023-09-29T20:32:50.866Z,20.98
2023-09-29T20:35:53.867Z,20.94
2023-09-29T20:38:56.748Z,20.89
2023-09-29T20:42:00.213Z,20.86
2023-09-29T20:45:06.745Z,20.85
2023-09-29T20:48:11.238Z,20.78
2023-09-29T20:51:14.137Z,20.75
2023-09-29T20:54:16.785Z,20.72
2023-09-29T20:57:19.412Z,20.69
2023-09-29T21:00:22.942Z,20.65
2023-09-29T21:03:25.850Z,20.62
2023-09-29T21:06:28.714Z,20.58
2023-09-29T21:09:31.827Z,20.54
2023-09-29T21:12:35.692Z,20.52
2023-09-29T21:15:38.472Z,20.49
2023-09-29T21:18:41.216Z,20.47
2023-09-29T21:21:44.065Z,20.46
2023-09-29T21:24:46.980Z,20.42
2023-09-29T21:27:49.884Z,20.35
2023-09-29T21:30:52.576Z,20.32
2023-09-29T21:33:56.510Z,20.29
2023-09-29T21:36:59.668Z,20.29
2023-09-29T21:40:03.118Z,20.26
2023-09-29T21:43:05.803Z,20.24
2023-09-29T21:46:08.952Z,20.23
2023-09-29T21:49:12.517Z,20.22
2023-09-29T21:52:15.172Z,20.20
2023-09-29T21:55:17.871Z,20.14
2023-09-29T21:58:21.755Z,20.08
2023-09-29T22:01:24.472Z,20.06
2023-09-29T22:04:27.600Z,20.04
2023-09-29T22:07:30.760Z,20.00
2023-09-29T22:10:34.558Z,19.99
2023-09-29T22:13:38.020Z,19.97
2023-09-29T22:16:41.820Z,19.94
2023-09-29T22:19:44.116Z,19.92
2023-09-29T22:22:53.311Z,19.92
2023-09-29T22:25:55.883Z,19.92
2023-09-29T22:28:59.033Z,19.90
2023-09-29T22:32:03.474Z,19.86
2023-09-29T22:35:07.054Z,19.82
2023-09-29T22:38:11.049Z,19.77
2023-09-29T22:41:16.218Z,19.73
2023-09-29T22:44:18.679Z,19.71
2023-09-29T22:47:21.695Z,19.69
2023-09-29T22:50:24.149Z,19.67
2023-09-29T22:53:27.953Z,19.61
2023-09-29T22:56:30.813Z,19.55
2023-09-29T22:59:33.770Z,19.54
2023-09-29T23:02:36.375Z,19.50
2023-09-29T23:05:39.334Z,19.47
2023-09-29T23:08:42.648Z,19.47
2023-09-29T23:11:45.797Z,19.43
2023-09-29T23:14:48.130Z,19.38
2023-09-29T23:17:52.221Z,19.33
2023-09-29T23:20:54.612Z,19.32
2023-09-29T23:23:57.705Z,19.22
2023-09-29T23:27:00.168Z,19.20
2023-09-29T23:30:05.053Z,19.16
2023-09-29T23:33:07.854Z,19.16
2023-09-29T23:36:10.814Z,19.13
2023-09-29T23:39:14.801Z,19.08
2023-09-29T23:42:17.769Z,19.05
2023-09-29T23:45:20.384Z,19.03
2023-09-29T23:48:23.465Z,18.98
2023-09-29T23:51:26.040Z,18.97
2023-09-29T23:54:29.130Z,18.92
2023-09-29T23:57:32.181Z,18.89
